createdAt,value
2023-04-16T00:07:23.485Z,0
2023-04-16T00:12:43.069Z,0
2023-04-16T00:18:01.960Z,0
2023-04-16T00:23:21.643Z,0
2023-04-16T00:28:41.355Z,0
2023-04-16T00:34:01.049Z,0
2023-04-16T00:44:39.256Z,0
2023-04-16T00:49:58.691Z,0
2023-04-16T00:55:18.155Z,0
2023-04-16T01:00:37.877Z,0
2023-04-16T01:05:57.373Z,0
2023-04-16T01:11:17.051Z,0
2023-04-16T01:16:36.598Z,0
2023-04-16T01:21:55.515Z,0
2023-04-16T01:27:15.074Z,0
2023-04-16T01:37:53.358Z,0
2023-04-16T01:43:12.777Z,0
2023-04-16T01:53:51.802Z,0
2023-04-16T01:59:11.096Z,0
2023-04-16T02:04:30.056Z,0
2023-04-16T02:09:49.233Z,0
2023-04-16T02:15:08.256Z,0
2023-04-16T02:25:46.729Z,0
2023-04-16T02:31:06.393Z,0
2023-04-16T02:36:26.209Z,0
2023-04-16T02:41:45.771Z,0
2023-04-16T02:57:43.828Z,0
2023-04-16T03:08:21.952Z,0
2023-04-16T03:19:00.402Z,0
2023-04-16T03:24:19.763Z,0
2023-04-16T03:29:39.335Z,0
2023-04-16T03:34:58.852Z,0
2023-04-16T03:40:18.094Z,0
2023-04-16T03:45:36.887Z,0
2023-04-16T03:50:55.950Z,0
2023-04-16T04:01:34.972Z,0
2023-04-16T04:06:54.465Z,0
2023-04-16T04:17:32.255Z,0
2023-04-16T04:22:51.032Z,0
2023-04-16T04:33:29.896Z,3
2023-04-16T04:38:49.262Z,7
2023-04-16T04:49:27.988Z,18
2023-04-16T05:00:06.594Z,24.15
2023-04-16T05:05:26.038Z,29.15
2023-04-16T05:10:44.813Z,32.3
2023-04-16T05:16:04.321Z,31.9
2023-04-16T05:21:23.553Z,34.89
2023-04-16T05:26:42.654Z,42.8
2023-04-16T05:32:02.145Z,45.5
2023-04-16T05:37:21.270Z,46.75
2023-04-16T05:42:40.906Z,54.65
2023-04-16T05:47:59.920Z,62.55
2023-04-16T05:58:37.775Z,68.34
2023-04-16T06:03:57.359Z,83.09
2023-04-16T06:09:16.747Z,80.44
2023-04-16T06:14:35.837Z,63.55
2023-04-16T06:19:54.978Z,58.34
2023-04-16T06:25:15.708Z,55.25
2023-04-16T06:30:33.990Z,59.8
2023-04-16T06:35:52.944Z,53.94
2023-04-16T06:41:12.310Z,53.5
2023-04-16T06:46:31.128Z,53.75
2023-04-16T06:51:50.751Z,69.55
2023-04-16T06:57:09.460Z,59.89
2023-04-16T07:02:28.727Z,51.1
2023-04-16T07:07:47.715Z,75.8
2023-04-16T07:13:06.754Z,97.04
2023-04-16T07:18:25.608Z,108.79
2023-04-16T07:23:44.974Z,110.19
2023-04-16T07:29:04.026Z,173.89
2023-04-16T07:34:23.611Z,184.34
2023-04-16T07:39:42.379Z,188.89
2023-04-16T07:50:21.063Z,168.59
2023-04-16T07:55:40.172Z,138.2
2023-04-16T08:00:59.335Z,119.29
2023-04-16T08:06:18.938Z,150.64
2023-04-16T08:16:56.968Z,136.94
2023-04-16T08:17:21.411Z,147.79
2023-04-16T08:22:40.372Z,163.25
2023-04-16T08:27:59.610Z,146.34
2023-04-16T08:33:19.120Z,147.45
2023-04-16T08:38:38.515Z,157.34
2023-04-16T08:49:16.951Z,263.79
2023-04-16T08:54:35.854Z,163.34
2023-04-16T09:05:13.882Z,155.34
2023-04-16T09:10:33.318Z,174.09
2023-04-16T09:15:52.257Z,151
2023-04-16T09:21:11.394Z,149
2023-04-16T09:26:30.660Z,135
2023-04-16T09:31:49.915Z,157.5
2023-04-16T09:37:09.352Z,185.2
2023-04-16T09:47:48.473Z,190.39
2023-04-16T09:53:07.977Z,240.04
2023-04-16T09:58:27.044Z,194.09
2023-04-16T10:03:45.993Z,167.04
2023-04-16T10:09:05.037Z,183.09
2023-04-16T10:14:24.231Z,154.64
2023-04-16T10:19:43.642Z,153.5
2023-04-16T10:30:22.674Z,128.75
2023-04-16T10:35:41.887Z,154.79
2023-04-16T10:46:20.268Z,168.54
2023-04-16T10:56:58.415Z,171.04
2023-04-16T11:02:18.108Z,156.34
2023-04-16T11:12:56.288Z,198.5
2023-04-16T11:18:15.211Z,164.59
2023-04-16T11:23:34.495Z,270.9
2023-04-16T11:28:53.748Z,202
2023-04-16T11:39:31.537Z,267.69
2023-04-16T11:44:51.099Z,251.95
2023-04-16T11:50:10.274Z,259.54
2023-04-16T11:55:29.480Z,199.25
2023-04-16T12:00:48.597Z,268.19
2023-04-16T12:11:26.811Z,265.34
2023-04-16T12:16:45.944Z,320.04
2023-04-16T12:22:04.673Z,294.54
2023-04-16T12:27:24.308Z,475.29
2023-04-16T12:32:43.821Z,372.4
2023-04-16T12:38:02.645Z,591.14
2023-04-16T12:43:22.269Z,480.69
2023-04-16T12:48:41.496Z,274.7
2023-04-16T12:54:00.257Z,255.95
2023-04-16T12:59:19.783Z,203.5
2023-04-16T13:04:38.775Z,195.39
2023-04-16T13:09:57.473Z,263.59
2023-04-16T13:15:16.557Z,352.9
2023-04-16T13:20:35.443Z,362.54
2023-04-16T13:25:54.586Z,306.65
2023-04-16T13:36:33.593Z,174.39
2023-04-16T13:41:52.565Z,155
2023-04-16T13:47:12.263Z,128.1
2023-04-16T13:52:31.654Z,114.79
2023-04-16T13:57:51.230Z,173.29
2023-04-16T14:03:10.181Z,183.09
2023-04-16T14:08:28.991Z,126.94
2023-04-16T14:13:48.343Z,112.6
2023-04-16T14:19:07.703Z,128.54
2023-04-16T14:24:26.948Z,183.04
2023-04-16T14:29:46.516Z,166.04
2023-04-16T14:35:05.236Z,129.44
2023-04-16T14:40:24.872Z,117.25
2023-04-16T14:45:43.908Z,111.69
2023-04-16T14:51:03.472Z,107.75
2023-04-16T14:56:22.658Z,105.75
2023-04-16T15:01:41.794Z,131.75
2023-04-16T15:12:20.887Z,144.44
2023-04-16T15:28:18.197Z,130.5
2023-04-16T15:38:56.440Z,109
2023-04-16T15:44:15.593Z,112.14
2023-04-16T15:54:54.479Z,90.39
2023-04-16T16:00:14.141Z,82
2023-04-16T16:05:33.094Z,67.59
2023-04-16T16:10:52.229Z,72.19
2023-04-16T16:16:11.350Z,76.89
2023-04-16T16:21:30.436Z,74.14
2023-04-16T16:26:49.896Z,71.44
2023-04-16T16:32:09.432Z,65.75
2023-04-16T16:37:28.611Z,76.14
2023-04-16T16:42:48.167Z,91.04
2023-04-16T16:53:26.796Z,132.75
2023-04-16T16:58:45.628Z,123.54
2023-04-16T17:04:04.551Z,96.94
2023-04-16T17:09:23.188Z,68.25
2023-04-16T17:14:42.138Z,64.3
2023-04-16T17:20:01.618Z,64.84
2023-04-16T17:25:21.191Z,57.89
2023-04-16T17:30:40.760Z,53
2023-04-16T17:36:00.726Z,52.6
2023-04-16T17:46:38.844Z,40.84
2023-04-16T17:51:57.535Z,37
2023-04-16T17:57:16.141Z,30.8
2023-04-16T18:02:35.985Z,33.15
2023-04-16T18:07:54.695Z,26.15
2023-04-16T18:18:33.143Z,15
2023-04-16T18:23:52.785Z,6
2023-04-16T18:34:30.848Z,0
2023-04-16T18:45:10.122Z,0
2023-04-16T18:50:29.767Z,0
2023-04-16T18:55:49.369Z,0
2023-04-16T19:01:08.698Z,0
2023-04-16T19:06:27.837Z,0
2023-04-16T19:17:06.998Z,0
2023-04-16T19:27:45.718Z,0
2023-04-16T19:33:05.417Z,0
2023-04-16T19:38:24.639Z,0
2023-04-16T19:43:43.986Z,0
2023-04-16T19:49:03.263Z,0
2023-04-16T19:54:22.010Z,0
2023-04-16T19:59:41.615Z,0
2023-04-16T20:10:20.451Z,0
2023-04-16T20:15:40.287Z,0
2023-04-16T20:20:59.014Z,0
2023-04-16T20:26:18.410Z,0
2023-04-16T20:31:37.726Z,0
2023-04-16T20:36:57.214Z,0
2023-04-16T20:42:15.954Z,0
2023-04-16T20:47:35.289Z,0
2023-04-16T20:52:54.344Z,0
2023-04-16T20:58:13.003Z,0
2023-04-16T21:03:31.813Z,0
2023-04-16T21:08:51.361Z,0
2023-04-16T21:14:10.990Z,0
2023-04-16T21:19:30.500Z,0
2023-04-16T21:24:49.418Z,0
2023-04-16T21:35:27.403Z,0
2023-04-16T21:46:06.099Z,0
2023-04-16T21:51:24.851Z,0
2023-04-16T21:56:44.071Z,0
2023-04-16T22:02:02.842Z,0
2023-04-16T22:07:22.002Z,0
2023-04-16T22:12:41.532Z,0
2023-04-16T22:18:00.551Z,0
2023-04-16T22:23:19.282Z,0
2023-04-16T22:28:38.664Z,0
2023-04-16T22:33:58.269Z,0
2023-04-16T22:39:17.435Z,0
2023-04-16T22:44:37.325Z,0
2023-04-16T22:49:55.921Z,0
2023-04-16T22:55:14.817Z,0
2023-04-16T23:00:34.112Z,0
2023-04-16T23:11:11.818Z,0
2023-04-16T23:16:30.409Z,0
2023-04-16T23:21:49.583Z,0
2023-04-16T23:27:08.789Z,0
2023-04-16T23:32:28.246Z,0
2023-04-16T23:43:06.377Z,0
2023-04-16T23:48:34.330Z,0
2023-04-16T23:53:44.724Z,0
2023-04-16T23:59:04.374Z,0
